Time;durP1;ratioP1;P1;durP2;ratioP2;P2;SDS_P1;SDS_P2;PMS_P1;PMS_P2;Temp;Humidity;BMP_temperature;BMP_pressure;BME280_temperature;BME280_humidity;BME280_pressure;Samples;Min_cycle;Max_cycle;Signal;HPM_P1;HPM_P2
2022/03/18 00:01:22;;;;;;;14.27;8.60;;;;;;;3.94;76.47;102495.69;5164114;27;20452;-68
2022/03/18 00:03:48;;;;;;;17.23;9.37;;;;;;;3.94;76.42;102493.94;5154690;27;20446;-68
2022/03/18 00:06:17;;;;;;;14.70;8.30;;;;;;;3.96;75.94;102493.91;5159042;27;20456;-67
2022/03/18 00:08:46;;;;;;;12.93;8.60;;;;;;;3.95;75.95;102500.97;5146454;27;20499;-68
2022/03/18 00:11:14;;;;;;;11.10;9.23;;;;;;;3.89;75.66;102501.13;5144519;27;20456;-67
2022/03/18 00:13:40;;;;;;;17.40;8.80;;;;;;;3.85;75.60;102514.50;5149379;27;20449;-67
2022/03/18 00:16:07;;;;;;;12.20;9.10;;;;;;;3.86;75.71;102511.81;5153544;27;20449;-67
2022/03/18 00:18:34;;;;;;;14.47;9.27;;;;;;;3.72;75.84;102524.53;5143668;27;20498;-67
2022/03/18 00:21:00;;;;;;;13.07;8.80;;;;;;;3.65;76.18;102522.97;5148660;27;20452;-67
2022/03/18 00:23:27;;;;;;;12.10;7.90;;;;;;;3.63;76.11;102522.13;5156391;27;20470;-67
2022/03/18 00:25:55;;;;;;;19.03;10.10;;;;;;;3.63;76.01;102517.72;5143189;27;20453;-67
2022/03/18 00:28:22;;;;;;;15.07;9.00;;;;;;;3.57;76.07;102516.06;5160857;27;20509;-68
2022/03/18 00:30:49;;;;;;;15.70;9.00;;;;;;;3.58;76.12;102523.13;5149588;27;20445;-67
2022/03/18 00:33:16;;;;;;;16.10;9.50;;;;;;;3.55;75.89;102517.91;5164151;27;20444;-68
2022/03/18 00:35:43;;;;;;;12.03;9.10;;;;;;;3.65;75.72;102522.97;5151775;27;20484;-68
2022/03/18 00:38:09;;;;;;;11.33;9.93;;;;;;;3.68;75.57;102520.22;5162984;27;20455;-68
2022/03/18 00:40:36;;;;;;;14.50;9.60;;;;;;;3.64;75.37;102516.78;5162539;27;20448;-68
2022/03/18 00:43:04;;;;;;;11.90;9.07;;;;;;;3.62;75.33;102518.59;5164781;27;20428;-68
2022/03/18 00:45:31;;;;;;;16.63;9.47;;;;;;;3.64;75.30;102516.78;5162767;27;20456;-67
2022/03/18 00:53:26;;;;;;;15.83;9.07;;;;;;;3.42;76.13;102526.19;5152612;27;20458;-67
2022/03/18 00:55:53;;;;;;;15.60;9.57;;;;;;;3.39;75.92;102529.78;5148774;27;20438;-66
2022/03/18 00:58:31;;;;;;;19.50;9.70;;;;;;;3.41;75.75;102530.59;5160356;27;20896;-67
2022/03/18 01:00:58;;;;;;;10.93;8.53;;;;;;;3.42;75.64;102532.38;5147823;27;20444;-66
2022/03/18 01:03:24;;;;;;;20.13;9.50;;;;;;;3.41;75.85;102535.03;5163803;27;20436;-67
2022/03/18 01:05:51;;;;;;;15.90;10.00;;;;;;;3.43;75.59;102522.63;5144449;27;20457;-67
2022/03/18 01:08:18;;;;;;;11.07;9.03;;;;;;;3.26;75.92;102525.69;5159014;27;20461;-67
2022/03/18 01:10:45;;;;;;;15.50;9.67;;;;;;;3.22;76.10;102535.47;5142536;27;20449;-67
2022/03/18 01:13:12;;;;;;;12.80;8.73;;;;;;;3.14;75.99;102533.03;5158031;27;20962;-67
2022/03/18 01:15:40;;;;;;;13.23;9.40;;;;;;;3.16;75.98;102533.84;5146428;27;20441;-67
2022/03/18 01:18:06;;;;;;;12.80;8.40;;;;;;;3.12;76.31;102534.81;5158706;27;20448;-67
2022/03/18 01:20:33;;;;;;;14.83;8.60;;;;;;;3.13;76.80;102533.06;5159773;27;20989;-66
2022/03/18 01:23:01;;;;;;;15.27;9.03;;;;;;;3.14;76.68;102532.13;5145851;27;20436;-67
2022/03/18 01:25:28;;;;;;;12.70;8.30;;;;;;;3.14;76.61;102530.38;5162402;27;20477;-66
2022/03/18 01:27:54;;;;;;;12.00;8.53;;;;;;;3.14;76.56;102537.44;5143764;27;20485;-66
2022/03/18 01:30:21;;;;;;;11.83;8.50;;;;;;;3.05;76.49;102537.66;5153452;27;20445;-67
2022/03/18 01:32:49;;;;;;;16.17;9.20;;;;;;;2.99;76.64;102546.59;5151923;27;20444;-66
2022/03/18 01:35:16;;;;;;;15.47;8.70;;;;;;;3.01;76.30;102544.78;5152831;27;20451;-66
2022/03/18 01:37:43;;;;;;;15.40;9.60;;;;;;;2.94;76.11;102546.69;5157629;27;20428;-67
2022/03/18 01:40:11;;;;;;;11.00;8.77;;;;;;;2.88;76.09;102544.19;5144075;27;20484;-66
2022/03/18 01:42:38;;;;;;;12.17;8.70;;;;;;;2.80;76.43;102532.94;5156293;27;20441;-67
2022/03/18 01:45:05;;;;;;;15.47;8.43;;;;;;;2.88;76.29;102541.53;5148840;27;20483;-67
2022/03/18 01:47:32;;;;;;;10.93;8.63;;;;;;;2.93;76.02;102549.38;5153568;27;20461;-66
2022/03/18 01:50:00;;;;;;;11.77;8.97;;;;;;;2.82;76.22;102550.47;5143006;27;20441;-67
2022/03/18 01:52:27;;;;;;;15.63;10.87;;;;;;;2.76;76.17;102561.19;5142006;27;20455;-67
2022/03/18 01:54:55;;;;;;;10.23;8.50;;;;;;;2.67;76.24;102557.88;5155569;27;20428;-67
2022/03/18 01:57:23;;;;;;;14.10;9.00;;;;;;;2.60;76.59;102560.66;5157262;27;21053;-66
2022/03/18 01:59:52;;;;;;;12.00;9.80;;;;;;;2.67;76.47;102563.16;5151573;27;20468;-67
2022/03/18 02:02:18;;;;;;;11.87;8.53;;;;;;;2.60;76.53;102567.69;5158317;27;20457;-66
2022/03/18 02:04:46;;;;;;;10.13;7.97;;;;;;;2.56;76.86;102572.16;5142720;27;20513;-66
2022/03/18 02:07:15;;;;;;;16.23;8.90;;;;;;;2.59;76.79;102576.53;5141720;27;20445;-66
2022/03/18 02:09:42;;;;;;;10.93;7.93;;;;;;;2.66;76.48;102587.81;5141493;27;20489;-66
2022/03/18 02:12:10;;;;;;;11.27;9.50;;;;;;;2.62;76.16;102585.25;5161710;27;20496;-66
2022/03/18 02:14:40;;;;;;;11.97;8.50;;;;;;;2.71;75.94;102591.22;5158471;27;20444;-67
2022/03/18 02:17:08;;;;;;;9.90;8.30;;;;;;;2.67;75.85;102594.84;5151724;27;20449;-66
2022/03/18 02:19:35;;;;;;;15.67;9.20;;;;;;;2.54;76.33;102586.31;5148685;27;20437;-66
2022/03/18 02:22:05;;;;;;;14.13;8.80;;;;;;;2.48;76.52;102591.72;5157534;27;20441;-66
2022/03/18 02:24:33;;;;;;;12.47;8.80;;;;;;;2.45;76.66;102598.78;5162267;27;20449;-66
2022/03/18 02:27:00;;;;;;;11.60;8.90;;;;;;;2.43;76.86;102602.34;5142654;27;20453;-66
2022/03/18 02:29:27;;;;;;;10.33;8.00;;;;;;;2.37;77.07;102599.84;5142554;27;20580;-66
2022/03/18 02:31:54;;;;;;;13.87;8.77;;;;;;;2.39;77.21;102604.19;5140899;27;20449;-66
2022/03/18 02:34:22;;;;;;;10.13;9.10;;;;;;;2.41;76.88;102610.31;5141654;27;20445;-66
2022/03/18 02:36:49;;;;;;;12.50;8.80;;;;;;;2.45;76.75;102613.78;5141281;27;20885;-66
2022/03/18 02:39:16;;;;;;;11.33;8.57;;;;;;;2.42;77.00;102621.75;5152619;27;20441;-66
2022/03/18 02:41:44;;;;;;;8.27;7.40;;;;;;;2.45;77.03;102619.06;5161654;27;20432;-66
2022/03/18 02:44:11;;;;;;;11.47;8.30;;;;;;;2.45;76.90;102627.84;5160387;27;20473;-66
2022/03/18 02:46:38;;;;;;;9.87;8.67;;;;;;;2.38;76.52;102622.72;5155121;27;20450;-66
2022/03/18 02:49:06;;;;;;;14.47;9.40;;;;;;;2.42;76.56;102630.53;5154996;27;20957;-66
2022/03/18 02:51:36;;;;;;;10.30;7.43;;;;;;;2.44;76.49;102631.38;5143459;27;20804;-66
2022/03/18 02:54:03;;;;;;;12.00;8.20;;;;;;;2.38;76.52;102633.28;5141424;27;20437;-66
2022/03/18 02:56:30;;;;;;;11.13;8.57;;;;;;;2.45;76.13;102627.84;5144250;27;20483;-66
2022/03/18 02:58:58;;;;;;;13.33;8.30;;;;;;;2.37;76.26;102629.75;5160478;27;20466;-67
2022/03/18 03:01:27;;;;;;;11.97;8.10;;;;;;;2.26;76.38;102637.88;5148661;27;20479;-66
2022/03/18 03:03:53;;;;;;;12.37;8.70;;;;;;;2.17;76.92;102635.41;5150386;27;20432;-66
2022/03/18 03:09:16;;;;;;;11.73;7.10;;;;;;;2.19;76.51;102659.13;5113296;27;20480;-66
2022/03/18 03:11:43;;;;;;;12.90;8.50;;;;;;;2.25;76.47;102659.88;5157519;27;20433;-66
2022/03/18 03:14:11;;;;;;;13.50;8.23;;;;;;;2.21;76.33;102663.47;5140926;27;20932;-66
2022/03/18 03:16:38;;;;;;;15.33;7.83;;;;;;;2.15;76.41;102668.84;5140604;27;20453;-66
2022/03/18 03:19:05;;;;;;;12.87;7.43;;;;;;;2.12;76.52;102668.03;5143997;27;20441;-66
2022/03/18 03:21:31;;;;;;;13.43;7.00;;;;;;;2.06;76.48;102669.88;5153279;27;20947;-66
2022/03/18 03:23:58;;;;;;;17.90;7.70;;;;;;;2.02;76.79;102676.13;5140602;28;20445;-66
2022/03/18 03:26:25;;;;;;;9.17;7.10;;;;;;;2.05;76.90;102680.47;5143146;27;20478;-66
2022/03/18 03:28:51;;;;;;;12.10;7.53;;;;;;;2.05;76.92;102677.84;5150912;27;20507;-66
2022/03/18 03:31:20;;;;;;;9.80;8.60;;;;;;;1.98;76.67;102679.72;5164415;27;20519;-66
2022/03/18 03:33:47;;;;;;;13.43;7.50;;;;;;;1.89;77.14;102679.84;5149966;27;20445;-67
2022/03/18 03:36:13;;;;;;;13.40;7.17;;;;;;;1.92;77.39;102673.66;5146412;27;20441;-66
2022/03/18 03:38:40;;;;;;;9.97;7.03;;;;;;;1.91;77.27;102680.72;5154449;27;20446;-66
2022/03/18 03:41:06;;;;;;;12.60;7.70;;;;;;;1.88;77.45;102680.75;5158628;27;20443;-66
2022/03/18 03:43:33;;;;;;;17.93;7.27;;;;;;;1.97;77.26;102688.50;5157331;27;20449;-66
2022/03/18 03:46:00;;;;;;;13.67;6.77;;;;;;;1.94;77.47;102679.78;5144333;27;21113;-66
2022/03/18 03:48:28;;;;;;;16.63;7.97;;;;;;;1.89;77.91;102682.47;5159089;27;20464;-66
2022/03/18 03:50:55;;;;;;;15.43;8.37;;;;;;;1.88;78.23;102683.41;5147587;27;20512;-66
2022/03/18 03:53:21;;;;;;;11.17;7.33;;;;;;;1.85;77.97;102684.28;5163846;27;20468;-66
2022/03/18 03:55:48;;;;;;;12.73;7.73;;;;;;;1.90;77.80;102680.72;5164194;27;21045;-66
2022/03/18 03:58:15;;;;;;;13.70;8.47;;;;;;;1.90;77.98;102688.66;5161886;27;20433;-66
2022/03/18 04:00:41;;;;;;;15.97;7.33;;;;;;;1.86;78.13;102679.91;5145922;27;20488;-66
2022/03/18 04:03:08;;;;;;;13.27;7.70;;;;;;;1.78;78.42;102684.44;5164833;27;20693;-66
2022/03/18 04:05:38;;;;;;;11.50;8.27;;;;;;;1.74;77.92;102688.88;5150987;27;20959;-66
2022/03/18 04:08:05;;;;;;;13.20;7.13;;;;;;;1.72;77.60;102698.59;5140224;27;20533;-66
2022/03/18 04:10:31;;;;;;;9.60;7.20;;;;;;;1.68;77.35;102697.78;5158995;27;20443;-66
2022/03/18 04:12:58;;;;;;;11.27;7.43;;;;;;;1.61;77.32;102696.09;5143725;27;20445;-65
2022/03/18 04:15:25;;;;;;;9.83;6.63;;;;;;;1.63;77.24;102703.97;5160724;27;20451;-66
2022/03/18 04:17:52;;;;;;;15.00;6.83;;;;;;;1.63;77.04;102706.63;5148307;27;20448;-66
2022/03/18 04:20:22;;;;;;;13.70;6.87;;;;;;;1.58;76.86;102711.09;5156406;27;20505;-66
2022/03/18 04:22:50;;;;;;;9.73;6.83;;;;;;;1.63;76.67;102712.78;5161645;27;20436;-65
2022/03/18 04:25:17;;;;;;;9.27;7.40;;;;;;;1.63;76.61;102704.88;5153143;27;20445;-66
2022/03/18 04:27:43;;;;;;;13.10;8.20;;;;;;;1.67;76.50;102708.34;5158960;27;20437;-66
2022/03/18 04:30:12;;;;;;;13.37;6.97;;;;;;;1.62;76.49;102710.16;5147738;27;20506;-66
2022/03/18 04:32:40;;;;;;;13.57;8.20;;;;;;;1.58;76.40;102716.34;5158100;27;20485;-66
2022/03/18 04:35:08;;;;;;;13.40;8.13;;;;;;;1.57;76.51;102720.78;5146437;27;20450;-66
2022/03/18 04:37:35;;;;;;;10.57;7.73;;;;;;;1.53;76.56;102734.00;5155833;27;20456;-66
2022/03/18 04:40:04;;;;;;;13.30;9.07;;;;;;;1.40;76.67;102728.03;5143224;27;20462;-66
2022/03/18 04:42:31;;;;;;;11.20;8.47;;;;;;;1.36;76.74;102727.22;5147110;27;20433;-66
2022/03/18 04:44:58;;;;;;;11.43;7.37;;;;;;;1.29;76.99;102733.47;5163639;27;20452;-66
2022/03/18 04:47:24;;;;;;;14.33;8.47;;;;;;;1.33;76.99;102747.47;5161939;27;20451;-66
2022/03/18 04:49:51;;;;;;;16.97;9.20;;;;;;;1.30;76.92;102743.09;5161805;27;20460;-66
2022/03/18 04:52:18;;;;;;;10.60;8.10;;;;;;;1.37;76.61;102736.88;5159029;27;21184;-66
2022/03/18 04:54:44;;;;;;;13.17;9.00;;;;;;;1.31;76.82;102742.22;5149230;27;21134;-66
2022/03/18 04:57:19;;;;;;;11.63;8.63;;;;;;;1.25;77.13;102737.91;5163683;27;20452;-66
2022/03/18 04:59:47;;;;;;;12.20;8.97;;;;;;;1.24;77.28;102743.19;5161833;27;20508;-66
2022/03/18 05:02:15;;;;;;;12.67;8.50;;;;;;;1.09;77.65;102734.59;5146960;27;20465;-66
2022/03/18 05:04:42;;;;;;;12.00;8.93;;;;;;;1.02;77.99;102738.16;5129210;27;20440;-66
2022/03/18 05:07:11;;;;;;;12.43;8.90;;;;;;;1.06;78.40;102739.00;5141453;27;20504;-66
2022/03/18 05:09:38;;;;;;;11.67;8.77;;;;;;;1.07;78.12;102749.50;5163047;27;20464;-66
2022/03/18 05:12:07;;;;;;;11.07;7.90;;;;;;;1.01;78.20;102746.97;5142533;27;20460;-66
2022/03/18 05:14:35;;;;;;;10.93;8.90;;;;;;;1.01;78.38;102759.25;5135166;27;20185;-66
2022/03/18 05:17:02;;;;;;;13.00;9.40;;;;;;;1.06;78.21;102770.59;5132208;27;20204;-66
2022/03/18 05:19:29;;;;;;;12.63;9.30;;;;;;;1.13;77.73;102777.56;5127357;27;20429;-65
2022/03/18 05:21:56;;;;;;;14.43;9.60;;;;;;;1.20;77.28;102778.34;5136197;27;20461;-65
2022/03/18 05:24:23;;;;;;;11.93;9.27;;;;;;;1.20;77.12;102778.34;5137343;27;20508;-65
2022/03/18 05:26:50;;;;;;;14.37;8.93;;;;;;;1.12;77.09;102791.63;5135240;27;20441;-65
2022/03/18 05:29:17;;;;;;;17.13;9.30;;;;;;;1.14;77.16;102800.38;5141414;27;20497;-65
2022/03/18 05:31:46;;;;;;;11.90;8.73;;;;;;;1.16;77.00;102803.88;5138889;27;20446;-66
2022/03/18 05:34:13;;;;;;;11.97;9.13;;;;;;;1.18;76.98;102810.00;5122944;27;20524;-65
2022/03/18 05:36:39;;;;;;;10.43;8.27;;;;;;;1.20;76.99;102812.59;5142434;27;20456;-65
2022/03/18 05:39:06;;;;;;;14.60;7.80;;;;;;;1.27;76.88;102812.53;5131647;27;20449;-66
2022/03/18 05:41:33;;;;;;;12.53;8.43;;;;;;;1.24;76.46;102820.47;5130617;27;20472;-66
2022/03/18 05:44:00;;;;;;;17.87;9.50;;;;;;;1.26;76.36;102831.00;5140408;27;20460;-66
2022/03/18 05:46:27;;;;;;;13.70;8.43;;;;;;;1.26;76.19;102826.59;5126752;27;20446;-66
2022/03/18 05:48:55;;;;;;;12.60;10.70;;;;;;;1.31;76.18;102830.06;5141887;27;20491;-65
2022/03/18 05:51:22;;;;;;;13.53;8.73;;;;;;;1.41;76.13;102833.47;5145166;27;20445;-66
2022/03/18 05:53:48;;;;;;;11.30;8.90;;;;;;;1.35;76.14;102848.47;5163285;27;20448;-66
2022/03/18 05:59:00;;;;;;;11.97;8.20;;;;;;;1.38;76.46;102851.09;5133251;27;20459;-65
2022/03/18 06:01:27;;;;;;;9.50;8.47;;;;;;;1.45;76.01;102856.25;5128726;27;20552;-66
2022/03/18 06:03:55;;;;;;;15.53;9.47;;;;;;;1.39;76.61;102858.06;5131993;27;20442;-66
2022/03/18 06:06:22;;;;;;;16.53;9.33;;;;;;;1.35;76.92;102865.16;5129044;27;20864;-65
2022/03/18 06:11:51;;;;;;;10.10;8.73;;;;;;;1.69;77.04;102856.84;5130590;27;20432;-65
2022/03/18 06:14:19;;;;;;;13.77;10.07;;;;;;;3.05;76.17;102868.88;5145118;27;20433;-66
2022/03/18 06:16:47;;;;;;;11.83;8.57;;;;;;;4.29;70.57;102876.06;5155412;27;20984;-65
2022/03/18 06:19:16;;;;;;;17.90;9.87;;;;;;;5.73;65.90;102861.69;5141840;27;20457;-64
2022/03/18 06:21:43;;;;;;;17.10;9.97;;;;;;;7.36;60.09;102867.09;5145403;27;20454;-64
2022/03/18 06:24:10;;;;;;;11.33;8.00;;;;;;;8.60;55.25;102866.75;5141882;27;20506;-65
2022/03/18 06:26:37;;;;;;;9.60;6.73;;;;;;;9.26;52.37;102883.59;5140977;27;21222;-65
2022/03/18 06:29:04;;;;;;;11.60;6.53;;;;;;;10.33;49.02;102883.16;5141325;27;21058;-65
2022/03/18 06:31:31;;;;;;;11.57;6.57;;;;;;;10.08;48.56;102888.75;5131168;27;20434;-65
2022/03/18 06:33:58;;;;;;;8.87;5.93;;;;;;;9.74;49.70;102895.69;5136138;27;20477;-65
2022/03/18 06:36:26;;;;;;;8.13;6.37;;;;;;;10.26;47.49;102898.59;5132900;27;20501;-65
2022/03/18 06:38:53;;;;;;;9.73;6.60;;;;;;;11.40;45.18;102908.09;5120477;28;20440;-65
2022/03/18 06:41:20;;;;;;;17.03;6.30;;;;;;;12.18;43.72;102913.75;5120664;28;21017;-65
2022/03/18 06:43:47;;;;;;;9.40;5.50;;;;;;;12.15;43.14;102905.88;5127613;28;20436;-65
2022/03/18 06:46:14;;;;;;;7.90;6.00;;;;;;;12.80;42.22;102914.66;5138389;28;20445;-65
2022/03/18 06:48:41;;;;;;;8.70;5.33;;;;;;;12.78;40.88;102916.56;5140848;28;20417;-65
2022/03/18 06:51:08;;;;;;;8.53;6.67;;;;;;;12.77;40.69;102922.03;5140576;28;20511;-65
2022/03/18 06:53:36;;;;;;;7.93;5.47;;;;;;;13.30;39.80;102927.88;5141298;28;20444;-66
2022/03/18 06:56:04;;;;;;;8.67;5.67;;;;;;;13.78;39.34;102928.50;5135244;28;20591;-66
2022/03/18 06:58:31;;;;;;;9.17;5.83;;;;;;;14.32;39.01;102925.97;5137838;28;20469;-66
2022/03/18 07:00:58;;;;;;;8.70;5.67;;;;;;;15.60;36.25;102925.47;5140532;28;20456;-66
2022/03/18 07:03:24;;;;;;;7.53;5.70;;;;;;;15.79;35.91;102932.31;5144610;27;20470;-66
2022/03/18 07:05:51;;;;;;;7.70;5.70;;;;;;;15.97;34.80;102928.31;5141410;27;20453;-66
2022/03/18 07:08:18;;;;;;;8.73;6.17;;;;;;;16.22;34.78;102933.75;5124294;28;20435;-66
2022/03/18 07:10:47;;;;;;;8.40;5.90;;;;;;;15.66;35.60;102935.00;5123946;27;21022;-66
2022/03/18 07:13:15;;;;;;;9.37;5.43;;;;;;;16.32;34.67;102938.38;5139589;27;20490;-66
2022/03/18 07:15:42;;;;;;;6.67;5.97;;;;;;;16.40;34.47;102928.84;5143591;27;20947;-66
2022/03/18 07:18:08;;;;;;;13.10;7.03;;;;;;;16.63;33.88;102936.09;5148163;27;20539;-66
2022/03/18 07:20:37;;;;;;;8.07;6.17;;;;;;;16.90;34.24;102938.59;5151335;27;20480;-66
2022/03/18 07:23:16;;;;;;;9.80;6.53;;;;;;;17.26;32.95;102925.94;5130302;27;20207;-67
2022/03/18 07:25:44;;;;;;;7.70;6.13;;;;;;;18.22;32.42;102921.94;5137217;27;20957;-67
2022/03/18 07:28:13;;;;;;;8.07;7.27;;;;;;;18.49;31.37;102930.63;5143021;27;20541;-67
2022/03/18 07:30:52;;;;;;;8.17;6.40;;;;;;;18.87;31.34;102927.47;5149204;27;20544;-67
2022/03/18 07:33:19;;;;;;;8.90;6.83;;;;;;;19.37;30.29;102925.00;5142659;27;20445;-67
2022/03/18 07:35:46;;;;;;;8.57;6.10;;;;;;;20.37;29.28;102928.00;5142168;27;20474;-67
2022/03/18 07:38:13;;;;;;;8.23;6.40;;;;;;;19.94;29.77;102927.28;5143206;27;20425;-67
2022/03/18 07:40:40;;;;;;;14.27;8.03;;;;;;;20.82;27.85;102917.50;5142809;27;20480;-64
2022/03/18 07:43:08;;;;;;;16.60;8.50;;;;;;;19.96;29.17;102929.88;5143344;27;20500;-64
2022/03/18 07:45:37;;;;;;;14.57;7.53;;;;;;;19.57;29.94;102922.38;5141640;27;20444;-64
2022/03/18 07:48:06;;;;;;;10.83;7.77;;;;;;;19.49;30.93;102924.91;5133925;27;20456;-64
2022/03/18 07:50:34;;;;;;;10.60;7.70;;;;;;;18.22;32.21;102918.38;5143099;27;20476;-64
2022/03/18 07:53:01;;;;;;;10.83;8.27;;;;;;;18.00;32.71;102924.69;5143370;27;20448;-67
2022/03/18 07:55:30;;;;;;;10.80;7.80;;;;;;;17.52;33.90;102927.59;5142129;27;20456;-67
2022/03/18 07:57:58;;;;;;;11.00;8.17;;;;;;;19.10;32.01;102922.78;5142619;27;20459;-66
2022/03/18 08:00:25;;;;;;;10.77;7.83;;;;;;;19.75;30.83;102928.94;5140898;27;20445;-67
2022/03/18 08:02:54;;;;;;;10.53;8.40;;;;;;;19.83;30.44;102927.41;5142134;27;20510;-67
2022/03/18 08:05:22;;;;;;;13.77;9.00;;;;;;;19.38;30.68;102925.84;5142652;27;20438;-66
2022/03/18 08:07:49;;;;;;;9.97;8.50;;;;;;;19.80;30.72;102941.25;5141675;27;20457;-66
2022/03/18 08:10:17;;;;;;;12.17;8.93;;;;;;;19.52;31.16;102947.19;5142473;27;21076;-66
2022/03/18 08:12:46;;;;;;;13.27;8.57;;;;;;;19.68;30.82;102948.56;5133442;27;20953;-67
2022/03/18 08:15:14;;;;;;;10.00;8.90;;;;;;;20.91;29.08;102944.84;5121629;28;20442;-66
2022/03/18 08:17:42;;;;;;;14.60;9.07;;;;;;;19.45;30.60;102947.88;5122145;28;20450;-66
2022/03/18 08:20:13;;;;;;;11.33;8.60;;;;;;;17.87;33.45;102943.75;5122619;28;21194;-66
2022/03/18 08:22:40;;;;;;;10.20;8.13;;;;;;;19.42;31.25;102948.13;5130503;27;20490;-66
2022/03/18 08:25:08;;;;;;;14.00;8.67;;;;;;;19.74;30.82;102958.94;5138644;27;20460;-66
2022/03/18 08:27:35;;;;;;;9.30;8.23;;;;;;;19.57;31.13;102957.66;5142991;27;20484;-66
2022/03/18 08:30:03;;;;;;;11.20;8.63;;;;;;;19.55;30.42;102965.09;5143607;27;20481;-66
2022/03/18 08:32:30;;;;;;;9.47;7.83;;;;;;;20.09;30.26;102966.66;5141954;27;20456;-66
2022/03/18 08:34:58;;;;;;;11.30;8.23;;;;;;;20.32;29.83;102969.16;5136301;27;20467;-66
2022/03/18 08:40:12;;;;;;;9.80;8.47;;;;;;;21.88;27.44;102976.50;5138027;27;20405;-66
2022/03/18 08:42:39;;;;;;;10.20;8.10;;;;;;;21.18;28.10;102965.84;5143459;27;20421;-66
2022/03/18 08:45:07;;;;;;;9.60;7.33;;;;;;;21.35;27.83;102972.44;5143515;27;20480;-66
2022/03/18 08:47:34;;;;;;;11.67;7.20;;;;;;;21.40;27.11;102987.34;5141946;27;20568;-66
2022/03/18 08:50:01;;;;;;;10.00;7.47;;;;;;;21.68;27.07;102992.88;5135914;27;20484;-66
2022/03/18 08:52:29;;;;;;;11.70;7.90;;;;;;;21.95;26.52;102989.34;5143104;27;20470;-66
2022/03/18 08:54:56;;;;;;;9.63;7.17;;;;;;;21.22;27.23;102995.34;5143048;27;20430;-66
2022/03/18 08:57:22;;;;;;;11.17;6.80;;;;;;;20.46;28.57;103005.97;5141645;27;20438;-66
2022/03/18 08:59:49;;;;;;;8.93;6.87;;;;;;;20.50;28.74;103001.94;5143179;27;20493;-66
2022/03/18 09:02:16;;;;;;;7.53;5.70;;;;;;;17.55;32.57;103008.47;5134351;27;20442;-66
2022/03/18 09:04:43;;;;;;;8.60;6.17;;;;;;;19.44;31.16;103013.97;5141774;27;20455;-66
2022/03/18 09:07:10;;;;;;;8.80;5.23;;;;;;;20.60;29.18;103018.31;5142685;27;20484;-66
2022/03/18 09:09:38;;;;;;;10.43;6.63;;;;;;;21.36;28.46;103020.41;5142610;27;20433;-66
2022/03/18 09:12:05;;;;;;;7.50;6.63;;;;;;;21.17;28.72;103015.84;5140099;27;20532;-66
2022/03/18 09:14:32;;;;;;;9.80;6.70;;;;;;;21.42;28.46;103022.53;5139924;27;20433;-66
2022/03/18 09:16:59;;;;;;;14.43;5.87;;;;;;;20.59;28.95;103022.88;5141567;27;20471;-66
2022/03/18 09:19:26;;;;;;;9.27;5.43;;;;;;;19.98;29.88;103028.34;5142044;27;20449;-66
2022/03/18 09:21:53;;;;;;;9.67;3.90;;;;;;;19.49;29.80;103025.28;5142407;27;20777;-66
2022/03/18 09:24:19;;;;;;;9.40;4.07;;;;;;;20.20;29.20;103030.88;5141937;27;20459;-66
2022/03/18 09:26:48;;;;;;;9.80;5.03;;;;;;;20.09;29.99;103029.13;5140840;27;20457;-66
2022/03/18 09:29:15;;;;;;;9.90;5.83;;;;;;;20.71;28.70;103039.97;5141904;27;20555;-66
2022/03/18 09:31:42;;;;;;;8.40;5.67;;;;;;;19.62;30.43;103047.69;5132988;27;20507;-66
2022/03/18 09:34:09;;;;;;;6.67;4.30;;;;;;;18.90;30.98;103051.03;5141654;27;20450;-66
2022/03/18 09:36:36;;;;;;;9.97;4.87;;;;;;;18.79;30.63;103057.31;5141748;27;20449;-66
2022/03/18 09:39:04;;;;;;;9.50;4.80;;;;;;;18.95;31.07;103044.25;5142591;27;20763;-66
2022/03/18 09:41:30;;;;;;;6.83;4.90;;;;;;;19.00;31.28;103042.00;5141952;27;20862;-66
2022/03/18 09:43:59;;;;;;;6.80;4.67;;;;;;;19.47;30.48;103049.84;5141640;27;20437;-66
2022/03/18 09:46:26;;;;;;;9.50;5.10;;;;;;;19.33;31.77;103055.59;5141541;27;20450;-66
2022/03/18 09:48:53;;;;;;;10.00;5.30;;;;;;;19.95;30.02;103051.22;5141541;27;20445;-63
2022/03/18 09:51:20;;;;;;;8.00;4.40;;;;;;;20.15;29.71;103065.75;5141165;27;20515;-63
2022/03/18 09:53:47;;;;;;;11.80;4.80;;;;;;;20.47;29.04;103070.19;5141856;27;20451;-66
2022/03/18 09:56:14;;;;;;;14.70;4.90;;;;;;;20.48;28.75;103069.19;5141580;27;20474;-66
2022/03/18 09:58:40;;;;;;;8.70;5.27;;;;;;;19.38;31.28;103075.91;5142389;27;20482;-66
2022/03/18 10:01:08;;;;;;;8.40;4.13;;;;;;;18.80;31.34;103073.47;5141455;27;21192;-66
2022/03/18 10:03:39;;;;;;;7.57;4.30;;;;;;;18.38;33.01;103073.25;5140990;27;20811;-66
2022/03/18 10:06:07;;;;;;;7.13;3.97;;;;;;;19.07;31.90;103074.06;5141868;27;20437;-66
2022/03/18 10:08:50;;;;;;;8.93;4.50;;;;;;;19.04;31.21;103071.59;5142104;27;20455;-66
2022/03/18 10:11:18;;;;;;;9.33;4.53;;;;;;;18.68;31.83;103074.47;5142144;27;20480;-66
2022/03/18 10:13:53;;;;;;;8.97;3.87;;;;;;;18.73;32.10;103082.19;5136270;27;20445;-66
2022/03/18 10:16:31;;;;;;;5.80;3.80;;;;;;;18.76;32.45;103080.09;5136958;27;20449;-65
2022/03/18 10:18:58;;;;;;;8.33;3.90;;;;;;;17.95;32.99;103081.19;5141692;27;20711;-66
2022/03/18 10:21:25;;;;;;;12.80;4.20;;;;;;;18.94;32.17;103080.50;5142007;27;20441;-66
2022/03/18 10:24:04;;;;;;;9.77;4.20;;;;;;;18.80;31.65;103087.00;5141674;27;20429;-66
2022/03/18 10:26:31;;;;;;;7.80;3.87;;;;;;;18.30;32.54;103082.94;5140547;27;20478;-66
2022/03/18 10:29:00;;;;;;;5.60;3.70;;;;;;;18.40;32.48;103079.41;5141248;27;20525;-66
2022/03/18 10:31:45;;;;;;;7.63;4.53;;;;;;;17.90;34.66;103084.25;5131842;27;20537;-66
2022/03/18 10:37:08;;;;;;;10.00;4.77;;;;;;;19.31;32.80;103098.25;5118964;27;20481;-65
2022/03/18 10:39:37;;;;;;;11.33;4.80;;;;;;;18.67;32.99;103094.41;5123913;28;20475;-65
2022/03/18 10:42:07;;;;;;;11.50;4.73;;;;;;;18.23;34.09;103080.75;5120948;28;20505;-66
2022/03/18 10:44:49;;;;;;;9.80;4.70;;;;;;;17.53;34.91;103087.03;5120937;28;20454;-65
2022/03/18 10:47:38;;;;;;;6.90;4.20;;;;;;;17.05;35.69;103085.22;5120159;28;20454;-65
2022/03/18 10:50:21;;;;;;;7.50;5.47;;;;;;;17.10;35.15;103079.50;5122497;28;20418;-65
2022/03/18 10:53:08;;;;;;;8.53;5.10;;;;;;;17.40;35.41;103086.28;5141390;27;20453;-63
2022/03/18 10:55:36;;;;;;;7.80;5.23;;;;;;;16.50;36.78;103094.63;5141193;28;20492;-63
2022/03/18 10:58:06;;;;;;;8.03;5.33;;;;;;;18.35;34.77;103087.03;5140638;28;20963;-63
2022/03/18 11:00:34;;;;;;;14.00;5.60;;;;;;;17.51;34.92;103089.00;5140038;28;20476;-63
2022/03/18 11:03:03;;;;;;;9.00;4.53;;;;;;;16.90;36.14;103084.50;5137419;28;20506;-63
2022/03/18 11:05:32;;;;;;;5.80;3.10;;;;;;;16.09;36.02;103088.47;5140811;28;20437;-63
2022/03/18 11:08:01;;;;;;;6.40;3.20;;;;;;;16.19;35.11;103086.00;5140661;28;20477;-63
2022/03/18 11:13:13;;;;;;;5.20;3.97;;;;;;;16.76;34.22;103096.28;5140949;28;20417;-63
2022/03/18 11:15:43;;;;;;;6.60;3.13;;;;;;;16.69;34.69;103094.16;5140323;28;20445;-63
2022/03/18 11:18:13;;;;;;;10.67;3.20;;;;;;;15.85;36.75;103098.25;5135913;28;20814;-63
2022/03/18 11:20:52;;;;;;;7.10;3.30;;;;;;;16.18;35.90;103101.31;5118222;27;20433;-65
2022/03/18 11:23:20;;;;;;;8.77;3.10;;;;;;;16.81;35.14;103089.72;5131732;27;20528;-66
2022/03/18 11:25:48;;;;;;;6.90;3.37;;;;;;;16.63;35.50;103091.88;5119089;28;20460;-66
2022/03/18 11:28:16;;;;;;;4.97;3.00;;;;;;;15.89;35.40;103092.56;5138005;27;20476;-65
2022/03/18 11:30:44;;;;;;;7.77;3.10;;;;;;;15.20;37.20;103086.41;5154924;27;20479;-65
2022/03/18 11:33:22;;;;;;;6.73;2.87;;;;;;;15.56;36.25;103079.50;5133373;28;20533;-65
2022/03/18 11:36:19;;;;;;;6.30;3.70;;;;;;;15.76;37.23;103070.97;5139816;28;20457;-66
2022/03/18 11:38:52;;;;;;;6.33;4.00;;;;;;;15.47;38.13;103082.81;5139675;28;20857;-65
2022/03/18 11:41:19;;;;;;;8.87;3.90;;;;;;;15.41;38.25;103084.09;5118581;28;20811;-65
2022/03/18 11:44:03;;;;;;;8.90;3.57;;;;;;;16.16;35.64;103078.09;5119267;28;20430;-65
2022/03/18 11:46:29;;;;;;;7.43;4.47;;;;;;;16.22;37.12;103074.97;5118248;28;20450;-65
2022/03/18 11:49:00;;;;;;;5.87;3.53;;;;;;;16.25;35.69;103066.66;5119353;28;20437;-65
2022/03/18 11:51:30;;;;;;;5.67;2.83;;;;;;;16.11;36.86;103067.66;5122637;28;20481;-65